Time;durP1;ratioP1;P1;durP2;ratioP2;P2;SDS_P1;SDS_P2;PMS_P1;PMS_P2;Temp;Humidity;BMP_temperature;BMP_pressure;BME280_temperature;BME280_humidity;BME280_pressure;Samples;Min_cycle;Max_cycle;Signal;HPM_P1;HPM_P2
2023/05/23 00:00:57;;;;;;;26.25;9.55;;;;;;;-146.27;94.72;82677.47;5048607;28;20155;-74
2023/05/23 00:03:23;;;;;;;28.15;9.18;;;;;;;-146.27;94.76;82673.47;5045751;28;20083;-73
2023/05/23 00:05:49;;;;;;;28.55;8.00;;;;;;;-146.27;94.68;82715.66;5043412;28;20616;-72
2023/05/23 00:08:15;;;;;;;20.67;7.72;;;;;;;-146.27;95.55;82717.66;5049051;28;20017;-74
2023/05/23 00:10:40;;;;;;;14.35;6.90;;;;;;;-146.27;95.21;82703.59;5045493;28;20115;-74
2023/05/23 00:13:08;;;;;;;12.90;6.30;;;;;;;-146.27;95.38;82739.75;5038624;28;20112;-72
2023/05/23 00:15:36;;;;;;;14.07;6.07;;;;;;;-146.27;95.58;82725.69;5035803;28;20429;-74
2023/05/23 00:18:01;;;;;;;12.90;5.72;;;;;;;-146.27;95.13;82685.50;5038188;28;20029;-74
2023/05/23 00:20:27;;;;;;;13.05;5.50;;;;;;;-146.27;95.04;82709.63;5040064;28;20391;-73
2023/05/23 00:22:53;;;;;;;12.77;5.70;;;;;;;-146.27;95.25;82729.72;5043909;28;20023;-73
2023/05/23 00:25:20;;;;;;;20.75;6.07;;;;;;;-146.27;95.58;82679.50;5038264;28;20473;-73
2023/05/23 00:27:46;;;;;;;15.82;7.13;;;;;;;-146.27;95.59;82689.53;5049359;28;20040;-72
2023/05/23 00:30:11;;;;;;;20.63;8.23;;;;;;;-146.27;95.95;82709.63;5038503;28;20033;-74
2023/05/23 00:32:37;;;;;;;15.98;7.70;;;;;;;-146.27;96.14;82705.59;5047520;28;20468;-73
2023/05/23 00:35:02;;;;;;;26.25;8.20;;;;;;;-146.27;96.80;82695.56;5048587;28;20238;-71
2023/05/23 00:37:28;;;;;;;24.27;7.07;;;;;;;-146.27;96.79;82721.69;5040479;28;20033;-73
2023/05/23 00:39:53;;;;;;;32.20;8.02;;;;;;;-146.27;96.88;82701.59;5036952;28;20024;-73
2023/05/23 00:42:18;;;;;;;25.10;8.23;;;;;;;-146.27;97.15;82699.59;5047168;28;20063;-73
2023/05/23 00:44:44;;;;;;;27.92;7.72;;;;;;;-146.27;95.98;82657.41;5050182;28;20047;-73
2023/05/23 00:47:12;;;;;;;27.48;7.90;;;;;;;-146.27;96.30;82681.50;5049543;28;20276;-73
2023/05/23 00:49:38;;;;;;;29.13;7.78;;;;;;;-146.27;95.87;82705.59;5043160;28;20017;-75
2023/05/23 00:52:04;;;;;;;29.27;7.90;;;;;;;-146.27;96.07;82761.84;5040361;28;20581;-71
2023/05/23 00:54:30;;;;;;;26.92;7.82;;;;;;;-146.27;95.71;82697.56;5050641;28;20029;-73
2023/05/23 00:56:56;;;;;;;19.92;7.07;;;;;;;-146.27;96.18;82693.56;5053628;28;20059;-74
2023/05/23 00:59:23;;;;;;;22.08;8.27;;;;;;;-146.27;95.90;82695.56;5053349;28;20033;-74
2023/05/23 01:01:49;;;;;;;25.60;6.82;;;;;;;-146.27;95.13;82689.53;5039879;28;20036;-74
2023/05/23 01:04:15;;;;;;;23.05;6.43;;;;;;;-146.27;94.20;82697.56;5047340;28;20473;-73
2023/05/23 01:06:45;;;;;;;23.83;7.18;;;;;;;-146.27;94.60;82677.47;5046291;28;20248;-72
2023/05/23 01:09:12;;;;;;;25.05;8.15;;;;;;;-146.27;94.17;82657.41;5034015;28;20029;-72
2023/05/23 01:12:02;;;;;;;28.75;7.10;;;;;;;-146.27;93.00;82705.59;5043980;28;20196;-72
2023/05/23 01:14:41;;;;;;;22.55;6.53;;;;;;;-146.27;92.71;82653.38;5033384;28;20044;-73
2023/05/23 01:17:35;;;;;;;30.38;6.07;;;;;;;-146.27;91.76;82677.47;5048192;28;20029;-74
2023/05/23 01:20:11;;;;;;;23.63;5.63;;;;;;;-146.27;90.68;82663.41;5033442;28;20052;-72
2023/05/23 01:23:01;;;;;;;17.60;5.97;;;;;;;-146.27;90.19;82685.50;5046528;28;20022;-74
2023/05/23 01:25:58;;;;;;;16.80;5.68;;;;;;;-146.27;90.29;82665.44;5053118;28;20433;-74
2023/05/23 01:28:31;;;;;;;20.88;6.03;;;;;;;-146.27;89.27;82673.47;5037155;28;20529;-72
2023/05/23 01:30:57;;;;;;;;;;;;;;;-146.27;89.64;82669.44;5048899;28;20469;-73
2023/05/23 01:33:25;;;;;;;17.33;6.22;;;;;;;-146.27;90.02;82691.53;5081109;28;20288;-73
2023/05/23 01:35:51;;;;;;;22.67;5.95;;;;;;;-146.27;89.83;82687.53;5056509;28;20156;-73
2023/05/23 01:38:17;;;;;;;21.40;5.78;;;;;;;-146.27;89.83;82661.41;5045540;28;20449;-74
2023/05/23 01:40:42;;;;;;;21.45;5.50;;;;;;;-146.27;90.15;82701.59;5050533;28;20053;-73
2023/05/23 01:43:08;;;;;;;22.80;6.03;;;;;;;-146.27;91.12;82681.50;5035402;28;20033;-72
2023/05/23 01:45:34;;;;;;;28.23;6.93;;;;;;;-146.27;90.10;82675.47;5038487;28;20017;-73
2023/05/23 01:48:01;;;;;;;20.10;6.15;;;;;;;-146.27;89.85;82681.50;5050489;28;20504;-73
2023/05/23 01:50:27;;;;;;;23.23;6.57;;;;;;;-146.27;90.23;82657.41;5047254;28;20111;-72
2023/05/23 01:52:53;;;;;;;22.13;6.07;;;;;;;-146.27;89.59;82675.47;5046448;28;20063;-73
2023/05/23 01:55:25;;;;;;;21.63;6.13;;;;;;;-146.27;90.02;82703.59;5041629;28;20154;-73
2023/05/23 01:57:52;;;;;;;20.73;6.15;;;;;;;-146.27;89.87;82649.34;5041743;28;20102;-73
2023/05/23 02:00:17;;;;;;;16.25;6.00;;;;;;;-146.27;89.22;82633.28;5038950;28;20048;-72
2023/05/23 02:02:43;;;;;;;17.15;5.43;;;;;;;-146.27;88.61;82641.31;5045099;28;20067;-73
2023/05/23 02:05:09;;;;;;;19.88;6.55;;;;;;;-146.27;88.91;82651.38;5045415;28;20049;-73
2023/05/23 02:07:35;;;;;;;20.38;6.32;;;;;;;-146.27;89.03;82665.44;5046794;28;20028;-73
2023/05/23 02:10:03;;;;;;;26.50;5.93;;;;;;;-146.27;88.29;82677.47;5039579;28;20485;-73
2023/05/23 02:12:28;;;;;;;20.13;5.97;;;;;;;-146.27;88.44;82699.59;5033154;28;20497;-73
2023/05/23 02:14:54;;;;;;;22.80;5.63;;;;;;;-146.27;87.53;82697.56;5041862;28;20033;-72
2023/05/23 02:17:20;;;;;;;22.65;5.97;;;;;;;-146.27;87.70;82697.56;5051700;28;20090;-73
2023/05/23 02:19:46;;;;;;;24.13;7.72;;;;;;;-146.27;88.40;82709.63;5046994;28;20082;-73
2023/05/23 02:22:12;;;;;;;21.58;6.18;;;;;;;-146.27;88.10;82713.66;5047046;28;20577;-73
2023/05/23 02:24:37;;;;;;;20.80;5.65;;;;;;;-146.27;87.84;82733.72;5051338;28;20039;-72
2023/05/23 02:27:03;;;;;;;26.67;6.03;;;;;;;-146.27;87.54;82741.78;5045657;28;20056;-73
2023/05/23 02:29:28;;;;;;;21.60;5.68;;;;;;;-146.27;87.74;82707.63;5054170;28;20060;-72
2023/05/23 02:31:54;;;;;;;19.15;5.95;;;;;;;-146.27;87.81;82737.75;5045347;28;20032;-74
2023/05/23 02:34:19;;;;;;;14.48;5.90;;;;;;;-146.27;88.03;82727.72;5047150;28;20067;-73
2023/05/23 02:36:44;;;;;;;23.08;5.25;;;;;;;-146.27;87.89;82731.72;5047622;28;20017;-71
2023/05/23 02:39:10;;;;;;;21.33;6.40;;;;;;;-146.27;87.39;82721.69;5045658;28;20112;-73
2023/05/23 02:41:36;;;;;;;21.80;4.72;;;;;;;-146.27;87.65;82743.78;5051896;28;20037;-73
2023/05/23 02:44:01;;;;;;;25.58;5.95;;;;;;;-146.27;87.85;82701.59;5043282;28;20051;-73
2023/05/23 02:46:27;;;;;;;28.98;6.18;;;;;;;-146.27;87.55;82729.72;5056048;28;20033;-73
2023/05/23 02:48:52;;;;;;;23.25;4.93;;;;;;;-146.27;87.73;82798.03;5037575;28;20027;-73
2023/05/23 02:51:17;;;;;;;16.60;4.75;;;;;;;-146.27;87.54;82725.69;5036112;28;20029;-73
2023/05/23 02:53:43;;;;;;;13.27;4.22;;;;;;;-146.27;87.31;82721.69;5047016;28;20033;-73
2023/05/23 02:56:08;;;;;;;19.25;4.00;;;;;;;-146.27;87.47;82749.81;5048125;28;20048;-73
2023/05/23 02:58:37;;;;;;;20.70;4.70;;;;;;;-146.27;86.88;82769.91;5050917;28;20059;-73
2023/05/23 03:01:02;;;;;;;16.83;3.53;;;;;;;-146.27;86.63;82773.91;5051381;28;20021;-73
2023/05/23 03:03:30;;;;;;;23.92;4.65;;;;;;;-146.27;87.24;82745.78;5040233;28;20403;-73
2023/05/23 03:05:59;;;;;;;17.92;3.83;;;;;;;-146.27;87.01;82743.78;5063239;28;20029;-74
2023/05/23 03:08:24;;;;;;;25.30;4.40;;;;;;;-146.27;86.73;82769.91;5048632;28;20222;-74
2023/05/23 03:10:50;;;;;;;22.83;4.97;;;;;;;-146.27;86.56;82753.81;5052656;28;20082;-73
2023/05/23 03:13:16;;;;;;;14.43;4.25;;;;;;;-146.27;86.18;82781.94;5044701;28;20037;-73
2023/05/23 03:15:41;;;;;;;17.90;4.32;;;;;;;-146.27;86.56;82806.06;5050213;28;20398;-73
2023/05/23 03:18:07;;;;;;;13.48;3.72;;;;;;;-146.27;86.37;82785.97;5051217;28;20099;-73
2023/05/23 03:20:32;;;;;;;23.27;5.57;;;;;;;-146.27;87.00;82794.00;5046029;28;20056;-74
2023/05/23 03:22:57;;;;;;;17.63;5.00;;;;;;;-146.27;86.93;82808.06;5048799;28;20495;-71
2023/05/23 03:25:23;;;;;;;18.35;4.15;;;;;;;-146.27;86.29;82789.97;5050556;28;20033;-72
2023/05/23 03:27:48;;;;;;;14.27;4.00;;;;;;;-146.27;85.99;82826.16;5049267;28;20472;-73
2023/05/23 03:30:14;;;;;;;23.00;3.85;;;;;;;-146.27;86.66;82816.09;5037452;28;20492;-72
2023/05/23 03:32:39;;;;;;;19.17;4.95;;;;;;;-146.27;86.18;82783.97;5049475;28;20017;-72
2023/05/23 03:35:05;;;;;;;15.10;4.05;;;;;;;-146.27;85.40;82798.03;5050252;28;20111;-75
2023/05/23 03:37:31;;;;;;;17.42;4.00;;;;;;;-146.27;85.32;82798.03;5043607;28;20108;-74
2023/05/23 03:39:56;;;;;;;18.63;4.25;;;;;;;-146.27;85.41;82826.16;5035285;28;20087;-74
2023/05/23 03:42:21;;;;;;;21.83;5.45;;;;;;;-146.27;84.60;82826.16;5037396;28;20033;-74
2023/05/23 03:44:47;;;;;;;17.17;3.70;;;;;;;-146.27;83.77;82832.19;5048281;28;20025;-74
2023/05/23 03:47:12;;;;;;;13.25;3.78;;;;;;;-146.27;84.73;82842.22;5050427;28;20432;-74
2023/05/23 03:49:37;;;;;;;12.45;3.33;;;;;;;-146.27;84.34;82858.28;5052311;28;20016;-73
2023/05/23 03:52:03;;;;;;;15.70;3.55;;;;;;;-146.27;84.33;82806.06;5049526;28;20499;-73
2023/05/23 03:54:28;;;;;;;14.88;3.75;;;;;;;-146.27;84.54;82808.06;5037320;28;20468;-72
2023/05/23 03:56:53;;;;;;;16.50;3.80;;;;;;;-146.27;83.89;82854.28;5035701;28;20034;-72
2023/05/23 03:59:19;;;;;;;13.80;3.65;;;;;;;-146.27;83.27;82838.19;5036267;28;20037;-72
2023/05/23 04:01:44;;;;;;;15.00;3.95;;;;;;;-146.27;82.84;82872.34;5048068;28;20055;-74
2023/05/23 04:04:09;;;;;;;16.35;4.07;;;;;;;-146.27;82.49;82914.53;5043992;28;20324;-73
2023/05/23 04:06:35;;;;;;;14.43;4.03;;;;;;;-146.27;83.50;82900.47;5048602;28;20539;-73
2023/05/23 04:09:01;;;;;;;10.27;4.18;;;;;;;-146.27;83.73;82920.56;5045266;28;20079;-73
2023/05/23 04:11:26;;;;;;;13.13;3.78;;;;;;;-146.27;82.66;82898.47;5041348;28;20488;-73
2023/05/23 04:13:52;;;;;;;17.73;4.13;;;;;;;-146.27;81.92;82892.44;5041768;28;20492;-73
2023/05/23 04:16:17;;;;;;;15.27;4.32;;;;;;;-146.27;81.92;82890.44;5039480;28;20469;-73
2023/05/23 04:18:45;;;;;;;15.15;4.40;;;;;;;-146.27;82.07;82950.72;5038283;28;20028;-73
2023/05/23 04:21:11;;;;;;;18.27;4.57;;;;;;;-146.27;82.79;82926.59;5046160;28;20109;-73
2023/05/23 04:23:37;;;;;;;17.80;4.45;;;;;;;-146.27;82.72;82926.59;5048353;28;20033;-73
2023/05/23 04:26:04;;;;;;;16.75;4.93;;;;;;;-146.27;83.36;82918.56;5049840;28;20036;-74
2023/05/23 04:28:30;;;;;;;17.52;6.20;;;;;;;-146.27;83.31;82954.72;5042263;28;20026;-73
2023/05/23 04:30:55;;;;;;;17.27;5.10;;;;;;;-146.27;82.58;82902.50;5045775;28;20557;-74
2023/05/23 04:33:21;;;;;;;15.70;4.78;;;;;;;-146.27;81.77;82890.44;5048538;28;20056;-73
2023/05/23 04:35:46;;;;;;;17.98;4.80;;;;;;;-146.27;81.84;82914.53;5049183;28;20048;-73
2023/05/23 04:38:12;;;;;;;16.60;5.30;;;;;;;-146.27;81.61;82874.38;5039947;28;20021;-73
2023/05/23 04:40:37;;;;;;;14.27;5.20;;;;;;;-146.27;81.62;82926.59;5050334;28;20029;-73
2023/05/23 04:43:03;;;;;;;18.30;5.22;;;;;;;-146.27;83.25;82918.56;5046683;28;20470;-73
2023/05/23 04:45:28;;;;;;;12.38;4.97;;;;;;;-146.27;82.88;82898.47;5047959;28;20555;-74
2023/05/23 04:47:54;;;;;;;17.65;5.60;;;;;;;-146.27;81.14;82914.53;5051515;28;20021;-73
2023/05/23 04:50:21;;;;;;;15.73;4.80;;;;;;;-146.27;80.89;82926.59;5051257;28;20484;-73
2023/05/23 04:52:47;;;;;;;17.50;5.20;;;;;;;-146.27;81.08;82918.56;5048713;28;20032;-73
2023/05/23 04:55:12;;;;;;;18.85;5.63;;;;;;;-146.27;80.63;82940.66;5048221;28;20432;-71
2023/05/23 04:57:38;;;;;;;17.02;5.70;;;;;;;-146.27;81.65;82922.59;5043101;28;20025;-74
2023/05/23 05:00:09;;;;;;;21.48;5.90;;;;;;;-146.27;80.67;82910.53;5050359;28;20083;-74
2023/05/23 05:02:35;;;;;;;23.58;5.20;;;;;;;-146.27;78.87;82946.69;5072376;28;20373;-74
2023/05/23 05:05:01;;;;;;;21.17;6.22;;;;;;;-146.27;78.91;82942.66;5037959;28;20048;-74
2023/05/23 05:07:28;;;;;;;21.55;5.40;;;;;;;-146.27;79.14;82934.63;5052193;28;20028;-73
2023/05/23 05:09:53;;;;;;;20.38;6.10;;;;;;;-146.27;79.14;82978.84;5047682;28;20028;-74
2023/05/23 05:12:18;;;;;;;20.10;6.35;;;;;;;-146.27;79.45;82964.78;5047970;28;20630;-73
2023/05/23 05:14:44;;;;;;;12.00;5.38;;;;;;;-146.27;78.74;82928.59;5045500;28;20027;-74
2023/05/23 05:17:09;;;;;;;13.90;5.07;;;;;;;-146.27;79.47;82970.81;5048823;28;20033;-73
2023/05/23 05:19:35;;;;;;;19.50;6.75;;;;;;;-146.27;79.13;82970.81;5048896;28;20067;-73
2023/05/23 05:22:00;;;;;;;17.45;5.30;;;;;;;-146.27;78.99;82938.66;5063712;28;20021;-74
2023/05/23 05:24:26;;;;;;;17.85;5.72;;;;;;;-146.27;78.60;82950.72;5062072;28;20475;-74
2023/05/23 05:26:52;;;;;;;21.52;5.72;;;;;;;-146.27;79.28;82962.75;5060770;28;20536;-73
2023/05/23 05:29:18;;;;;;;14.27;5.47;;;;;;;-146.27;78.84;82944.69;5052759;28;20033;-73
2023/05/23 05:31:44;;;;;;;15.55;4.85;;;;;;;-146.27;78.84;82958.75;5051765;28;20079;-74
2023/05/23 05:34:09;;;;;;;23.77;5.05;;;;;;;-146.27;80.16;82988.88;5048570;28;20032;-75
2023/05/23 05:36:35;;;;;;;9.77;4.45;;;;;;;-146.27;79.96;82966.78;5049291;28;20063;-73
2023/05/23 05:39:00;;;;;;;14.50;5.10;;;;;;;-146.27;81.40;82960.75;5051552;28;20108;-73
2023/05/23 05:41:26;;;;;;;15.88;5.68;;;;;;;-146.27;81.40;82962.75;5042156;28;20029;-73
2023/05/23 05:43:51;;;;;;;14.15;4.82;;;;;;;-146.27;81.04;82954.72;5054305;28;20389;-73
2023/05/23 05:46:17;;;;;;;14.32;5.78;;;;;;;-146.27;81.78;82936.66;5041847;28;20049;-73
2023/05/23 05:48:42;;;;;;;10.63;3.83;;;;;;;-146.27;82.91;82968.78;5042841;28;20083;-73
2023/05/23 05:51:07;;;;;;;15.82;4.45;;;;;;;-146.27;82.39;82950.72;5049801;28;20052;-75
2023/05/23 05:53:33;;;;;;;29.35;6.78;;;;;;;-146.27;81.84;82918.56;5052964;28;20047;-75
2023/05/23 05:55:58;;;;;;;15.55;4.68;;;;;;;-146.27;82.30;82982.84;5057300;28;20506;-74
2023/05/23 05:58:23;;;;;;;14.30;4.20;;;;;;;-146.27;84.16;82976.81;5052527;28;20029;-75
2023/05/23 06:00:49;;;;;;;13.38;4.00;;;;;;;-146.27;86.01;82984.88;5049793;28;20040;-74
2023/05/23 06:03:14;;;;;;;13.55;3.22;;;;;;;-146.27;85.86;83004.94;5040034;28;20029;-74
2023/05/23 06:05:40;;;;;;;12.05;3.58;;;;;;;-146.27;86.46;83023.03;5045594;28;20431;-76
2023/05/23 06:08:06;;;;;;;16.48;3.15;;;;;;;-146.27;86.91;82998.94;5058390;28;20566;-75
2023/05/23 06:10:32;;;;;;;11.60;3.88;;;;;;;-146.27;87.66;83019.03;5058846;28;20025;-74
2023/05/23 06:12:58;;;;;;;9.55;2.70;;;;;;;-146.27;87.99;83039.09;5055055;28;20404;-74
2023/05/23 06:15:23;;;;;;;12.48;3.03;;;;;;;-146.27;88.70;82998.94;5051377;28;20021;-74
2023/05/23 06:17:50;;;;;;;11.77;2.83;;;;;;;-146.27;87.86;83015.00;5046356;28;20395;-75
2023/05/23 06:20:15;;;;;;;13.55;3.72;;;;;;;-146.27;89.21;83006.97;5045378;28;20068;-74
2023/05/23 06:22:41;;;;;;;11.68;2.55;;;;;;;-146.27;88.89;83006.97;5042486;28;20481;-73
2023/05/23 06:25:06;;;;;;;8.35;2.42;;;;;;;-146.27;89.30;83035.09;5034776;28;20040;-74
2023/05/23 06:27:32;;;;;;;12.93;2.78;;;;;;;-146.27;87.76;83093.34;5050333;28;20043;-74
2023/05/23 06:29:57;;;;;;;7.45;2.08;;;;;;;-146.27;86.96;83015.00;5043476;28;20407;-74
2023/05/23 06:32:22;;;;;;;10.43;2.67;;;;;;;-146.27;86.82;83019.03;5039670;28;20039;-74
2023/05/23 06:34:48;;;;;;;13.20;2.35;;;;;;;-146.27;86.11;83023.03;5044681;28;20021;-75
2023/05/23 06:37:13;;;;;;;7.65;2.10;;;;;;;-146.27;86.80;83035.09;5046234;28;20036;-74
2023/05/23 06:39:38;;;;;;;9.52;2.20;;;;;;;-146.27;85.37;83025.03;5037958;28;20065;-75
2023/05/23 06:42:04;;;;;;;8.13;2.50;;;;;;;-146.27;84.88;83002.94;5033154;28;20055;-75
2023/05/23 06:44:29;;;;;;;15.15;2.17;;;;;;;-146.27;83.36;83021.03;5044402;28;20104;-76
2023/05/23 06:46:56;;;;;;;14.90;2.65;;;;;;;-146.27;83.42;83029.06;5031415;28;20124;-74
2023/05/23 06:49:25;;;;;;;13.80;2.42;;;;;;;-146.27;82.89;82974.81;5031340;28;20595;-75
2023/05/23 06:51:51;;;;;;;22.55;3.05;;;;;;;-146.27;82.45;82990.88;5031156;28;20032;-70
2023/05/23 06:54:17;;;;;;;14.88;2.28;;;;;;;-146.27;81.55;82990.88;5033563;28;20025;-74
2023/05/23 06:56:43;;;;;;;12.35;2.20;;;;;;;-146.27;80.87;82952.72;5044224;28;20052;-77
2023/05/23 06:59:08;;;;;;;16.85;2.50;;;;;;;-146.27;81.61;82918.56;5032877;28;20451;-76
2023/05/23 07:01:34;;;;;;;8.75;2.40;;;;;;;-146.27;78.63;82878.38;5038914;28;20064;-76
2023/05/23 07:03:59;;;;;;;13.77;2.80;;;;;;;-146.27;76.44;82850.25;5042333;28;20111;-77
2023/05/23 07:06:26;;;;;;;18.65;3.30;;;;;;;-146.27;75.56;82810.06;5044946;28;20064;-78
2023/05/23 07:08:52;;;;;;;17.38;2.80;;;;;;;-146.27;75.04;82785.97;5034447;28;20025;-70
2023/05/23 07:11:19;;;;;;;12.90;2.92;;;;;;;-146.27;74.72;82725.69;5045687;28;20051;-73
2023/05/23 07:13:44;;;;;;;17.05;3.22;;;;;;;-146.27;75.28;82838.19;5038680;28;20040;-72
2023/05/23 07:16:09;;;;;;;17.73;2.92;;;;;;;-146.27;73.67;82785.97;5048464;28;20029;-75
2023/05/23 07:18:35;;;;;;;16.80;2.70;;;;;;;-146.27;70.11;82757.84;5034376;28;20630;-73
2023/05/23 07:21:00;;;;;;;18.45;2.42;;;;;;;-146.27;69.73;82755.84;5046147;28;20511;-73
2023/05/23 07:23:25;;;;;;;23.73;4.80;;;;;;;-146.27;70.06;82741.78;5031359;28;20524;-73
2023/05/23 07:25:51;;;;;;;20.23;2.60;;;;;;;-146.27;71.27;82783.97;5050782;28;20072;-72
2023/05/23 07:28:16;;;;;;;21.00;3.08;;;;;;;-146.27;70.73;82767.88;5036113;28;20032;-73
2023/05/23 07:30:42;;;;;;;14.70;2.58;;;;;;;-146.27;70.83;82814.09;5036190;28;20029;-73
2023/05/23 07:33:07;;;;;;;17.70;2.75;;;;;;;-146.27;70.35;82800.03;5041396;28;20020;-71
2023/05/23 07:35:32;;;;;;;14.60;2.58;;;;;;;-146.27;71.39;82792.00;5032536;28;20036;-72
2023/05/23 07:37:58;;;;;;;20.48;3.13;;;;;;;-146.27;72.30;82777.94;5042939;28;20032;-72
2023/05/23 07:40:23;;;;;;;19.42;3.05;;;;;;;-146.27;72.13;82727.72;5050929;28;20024;-71
2023/05/23 07:42:49;;;;;;;23.83;3.22;;;;;;;-146.27;70.58;82673.47;5056645;28;20426;-71
2023/05/23 07:45:14;;;;;;;16.52;2.53;;;;;;;-146.27;68.75;82693.56;5031373;28;20021;-74
2023/05/23 07:47:40;;;;;;;13.18;2.42;;;;;;;-146.27;68.21;82709.63;5036959;28;20079;-73
2023/05/23 07:50:07;;;;;;;16.30;3.75;;;;;;;-146.27;68.06;82685.50;5068115;28;20028;-71
2023/05/23 07:52:32;;;;;;;21.55;3.08;;;;;;;-146.27;67.55;82567.00;5047440;28;20021;-72
2023/05/23 07:54:58;;;;;;;14.20;2.70;;;;;;;-146.27;67.55;82669.44;5049764;28;20035;-72
2023/05/23 07:57:24;;;;;;;24.95;3.25;;;;;;;-146.27;67.49;82685.50;5036594;28;20159;-71
2023/05/23 07:59:51;;;;;;;19.10;3.28;;;;;;;-146.27;70.29;82651.38;5038923;28;20059;-72
2023/05/23 08:02:16;;;;;;;18.95;2.88;;;;;;;-146.27;68.61;82581.06;5041897;28;20471;-72
2023/05/23 08:04:42;;;;;;;17.58;5.15;;;;;;;-146.27;66.38;82613.19;5045687;28;20025;-72
2023/05/23 08:07:08;;;;;;;16.20;3.42;;;;;;;-146.27;67.85;82633.28;5040373;28;20111;-71
2023/05/23 08:09:34;;;;;;;16.98;2.80;;;;;;;-146.27;69.12;82619.22;5037296;28;20229;-72
2023/05/23 08:11:59;;;;;;;14.00;2.83;;;;;;;-146.27;68.15;82585.06;5045892;28;20067;-73
2023/05/23 08:14:25;;;;;;;13.73;3.22;;;;;;;-146.27;66.81;82585.06;5048369;28;20033;-72
2023/05/23 08:16:50;;;;;;;18.77;3.50;;;;;;;-146.27;65.65;82575.03;5047508;28;20396;-70
2023/05/23 08:19:16;;;;;;;16.08;3.08;;;;;;;-146.27;64.79;82506.72;5037662;28;20079;-73
2023/05/23 08:21:42;;;;;;;23.25;3.30;;;;;;;-146.27;64.27;82524.81;5045567;28;20120;-71
2023/05/23 08:24:07;;;;;;;22.85;3.45;;;;;;;-146.27;63.94;82546.91;5037667;28;20117;-71
2023/05/23 08:26:34;;;;;;;19.52;2.75;;;;;;;-146.27;63.34;82514.75;5045389;28;20116;-72
2023/05/23 08:29:03;;;;;;;23.92;4.50;;;;;;;-146.27;64.31;82468.56;5036803;28;20469;-73
2023/05/23 08:31:29;;;;;;;13.43;3.00;;;;;;;-146.27;63.48;82520.78;5029878;28;20083;-71
2023/05/23 08:33:55;;;;;;;14.55;2.80;;;;;;;-146.27;62.28;82500.69;5041117;28;20032;-72
2023/05/23 08:36:21;;;;;;;15.32;3.58;;;;;;;-146.27;63.65;82532.84;5044366;28;20017;-72
2023/05/23 08:38:46;;;;;;;16.20;3.00;;;;;;;-146.27;62.34;82468.56;5050021;28;20512;-72
2023/05/23 08:41:19;;;;;;;14.05;3.05;;;;;;;-146.27;61.61;82490.66;5047983;28;20389;-71
2023/05/23 08:43:45;;;;;;;;;;;;;;;-146.27;62.40;82448.47;5036350;28;20032;-71
2023/05/23 08:46:12;;;;;;;16.98;3.08;;;;;;;-146.27;60.16;82432.41;5043967;28;19925;-71
2023/05/23 08:48:38;;;;;;;13.15;2.85;;;;;;;-146.27;58.92;82438.44;5046038;28;20056;-73
2023/05/23 08:51:03;;;;;;;25.02;4.05;;;;;;;-146.27;59.16;82396.25;5039894;28;20026;-72
2023/05/23 08:53:31;;;;;;;18.48;2.72;;;;;;;-146.27;60.70;82420.34;5041580;28;20036;-73
2023/05/23 08:56:01;;;;;;;15.68;3.03;;;;;;;-146.27;59.21;82384.19;5043802;28;20021;-73
2023/05/23 08:58:30;;;;;;;17.83;2.97;;;;;;;-146.27;59.98;82384.19;5038077;28;20033;-73
2023/05/23 09:00:58;;;;;;;19.85;3.20;;;;;;;-146.27;59.52;82360.09;5044769;28;20040;-71
2023/05/23 09:03:25;;;;;;;21.27;3.30;;;;;;;-146.27;57.94;82344.00;5037351;28;20036;-72
2023/05/23 09:05:55;;;;;;;18.23;3.25;;;;;;;-146.27;57.96;82360.09;5029546;28;20028;-71
2023/05/23 09:08:23;;;;;;;19.83;2.55;;;;;;;-146.27;59.53;82384.19;5060148;28;20025;-72
2023/05/23 09:10:48;;;;;;;11.43;2.30;;;;;;;-146.27;59.22;82333.97;5031673;28;20048;-73
2023/05/23 09:13:16;;;;;;;17.13;2.65;;;;;;;-146.27;58.93;82313.88;5046580;28;20037;-72
2023/05/23 09:16:00;;;;;;;15.35;2.70;;;;;;;-146.27;56.85;82291.78;5050771;28;20377;-72
2023/05/23 09:18:26;;;;;;;16.45;3.53;;;;;;;-146.27;55.96;82247.59;5051408;28;20397;-74
2023/05/23 09:20:52;;;;;;;17.92;2.92;;;;;;;-146.27;57.26;82285.75;5044445;28;20021;-73
2023/05/23 09:23:18;;;;;;;15.07;2.75;;;;;;;-146.27;57.58;82271.69;5051472;28;20029;-71
2023/05/23 09:25:46;;;;;;;19.52;3.15;;;;;;;-146.27;59.31;82243.56;5036058;28;20494;-71
2023/05/23 09:28:12;;;;;;;27.48;3.83;;;;;;;-146.27;58.59;82223.47;5033057;28;20103;-71
2023/05/23 09:30:38;;;;;;;12.18;2.75;;;;;;;-146.27;56.72;82185.31;5050319;28;20029;-71
2023/05/23 09:33:04;;;;;;;14.32;2.80;;;;;;;-146.27;56.95;82217.47;5052667;28;20341;-72
2023/05/23 09:35:29;;;;;;;15.95;3.28;;;;;;;-146.27;57.19;82199.38;5039256;28;20424;-72
2023/05/23 09:37:57;;;;;;;14.77;2.67;;;;;;;-146.27;56.58;82187.31;5046969;28;20030;-71
2023/05/23 09:40:28;;;;;;;15.82;2.85;;;;;;;-146.27;52.47;82279.72;5032279;28;20055;-70
2023/05/23 09:42:54;;;;;;;17.83;3.72;;;;;;;-146.27;55.97;82303.84;5032964;28;20113;-72
2023/05/23 09:45:19;;;;;;;23.65;2.97;;;;;;;-146.27;55.32;82265.66;5032642;28;20152;-71
2023/05/23 09:47:50;;;;;;;16.27;2.95;;;;;;;-146.27;55.67;82307.84;5032772;28;20079;-72
2023/05/23 09:50:15;;;;;;;16.65;2.72;;;;;;;-146.27;55.28;82319.91;5037464;28;20029;-71
2023/05/23 09:52:41;;;;;;;14.13;2.55;;;;;;;-146.27;54.73;82311.88;5045001;28;20025;-71
2023/05/23 09:55:07;;;;;;;15.00;2.47;;;;;;;-146.27;59.26;82283.75;5051892;28;20100;-73
2023/05/23 09:57:39;;;;;;;11.75;2.70;;;;;;;-146.27;57.41;82231.53;5044371;28;20059;-72
2023/05/23 10:00:05;;;;;;;13.65;2.85;;;;;;;-146.27;56.21;82163.22;5042290;28;20090;-72
2023/05/23 10:03:01;;;;;;;21.10;2.85;;;;;;;-146.27;56.73;82143.13;5039842;28;20029;-72
2023/05/23 10:05:32;;;;;;;13.45;3.67;;;;;;;-146.27;54.01;82072.84;5034576;28;20038;-72
2023/05/23 10:08:07;;;;;;;11.23;2.40;;;;;;;-146.27;51.77;82000.53;5044356;28;20408;-73
2023/05/23 10:10:33;;;;;;;16.73;3.05;;;;;;;-146.27;51.26;82014.59;5049466;28;20017;-78
2023/05/23 10:13:03;;;;;;;11.02;2.50;;;;;;;-146.27;48.42;82006.53;5033869;28;20060;-73
2023/05/23 10:15:35;;;;;;;17.60;3.42;;;;;;;-146.27;48.81;82098.94;5032898;28;20092;-73
2023/05/23 10:18:02;;;;;;;10.55;2.60;;;;;;;-146.27;46.72;82109.00;5040286;28;20033;-73
2023/05/23 10:20:33;;;;;;;14.57;3.35;;;;;;;-146.27;49.40;82046.72;5032095;28;20028;-73
2023/05/23 10:23:01;;;;;;;14.82;2.78;;;;;;;-146.27;49.34;82042.69;5031918;28;20124;-75
2023/05/23 10:25:27;;;;;;;10.95;2.28;;;;;;;-146.27;49.20;82054.75;5049050;28;20025;-70
2023/05/23 10:27:57;;;;;;;13.52;2.33;;;;;;;-146.27;47.17;82115.00;5051778;28;20035;-72
2023/05/23 10:30:26;;;;;;;11.10;2.28;;;;;;;-146.27;50.33;82109.00;5031801;28;20037;-73
2023/05/23 10:32:53;;;;;;;11.80;2.72;;;;;;;-146.27;48.96;82080.88;5030766;28;20057;-72
2023/05/23 10:35:28;;;;;;;9.43;2.00;;;;;;;-146.27;49.38;81982.44;5040270;28;20080;-74
2023/05/23 10:38:05;;;;;;;13.07;2.78;;;;;;;-146.27;47.63;81934.25;5040559;28;20032;-73
2023/05/23 10:40:41;;;;;;;15.13;2.50;;;;;;;-146.27;48.48;81902.09;5039545;28;20036;-74
2023/05/23 10:43:19;;;;;;;19.55;3.05;;;;;;;-146.27;48.81;81978.44;5034696;28;20473;-73
2023/05/23 10:45:48;;;;;;;14.23;2.75;;;;;;;-146.27;49.22;82008.56;5033889;28;20521;-74
2023/05/23 10:48:21;;;;;;;22.90;3.85;;;;;;;-146.27;48.84;82052.75;5048169;28;20035;-74
2023/05/23 10:51:01;;;;;;;18.98;2.63;;;;;;;-146.27;50.78;82026.63;5049159;28;20028;-73
2023/05/23 10:53:28;;;;;;;19.85;2.92;;;;;;;-146.27;51.48;81986.47;5038459;28;20060;-74
2023/05/23 10:55:55;;;;;;;18.40;3.05;;;;;;;-146.27;52.50;81968.38;5031350;28;20045;-74
2023/05/23 10:58:21;;;;;;;15.98;2.83;;;;;;;-146.27;48.49;81956.34;5034901;28;20416;-73
2023/05/23 11:00:59;;;;;;;11.23;2.53;;;;;;;-146.27;49.94;81902.09;5035316;28;20030;-78
2023/05/23 11:03:34;;;;;;;14.65;2.58;;;;;;;-146.27;51.92;81882.00;5031193;28;20029;-74
2023/05/23 11:06:01;;;;;;;18.08;3.08;;;;;;;-146.27;48.94;81869.97;5031906;28;20032;-74
2023/05/23 11:08:36;;;;;;;14.93;2.30;;;;;;;-146.27;47.23;81835.81;5038330;28;20809;-73